PWSweather.com
Personal Weather Stations
Station Observations
WILS01
Leuven, WilseleBE 3012

LeuvenWilseleBE 3012

Lat: 50.89518, Lon: 4.69741

Elevation: 120

Station Type: DAVIS VP2

Latest ConditionsUpdated 4:05:45 PM GMT+01:01 Thursday, Oct 23, 2014
Currently Today's Max Today's Min Today's Average
Temperature 57.0°F13.9°C 57.7°F14.3°C 46.8°F8.2°C 51.4°F10.8°C
Dew Point 52.0°F11.1°C 52.9°F11.6°C 44.4°F6.9°C 48.1°F8.9°C
Winds 2.9 mph SW4.7 kmh SW 3.1 mph SSW5.0 kmh SSW - 1.7 mph 2.7 kmh
Wind Gusts 3.8 mph6.1 kmh 4.0 mph6.4 kmh - -
Humidity 83% 93% 82% 89%
Pressure 30.19 in1022.4 mb 30.22 in1023.4 mb 30.19 in1022.4 mb -
Hour Temp Dew Point Humidity Winds Wind Gusts Pressure Precip Precip Rate Daily Precip Total
04:05 PM 57.0°F13.9°C 52.0°F11.1°C 83% 2.9 mph SW4.7 kmh SW 3.8 mph6.1 kmh 30.19 in1022.4 mb 0.00 in0.0 mm 0.00 in/hr0.0 mm/hr 0.00 in0.0 mm
03:55 PM 57.2°F14.0°C 52.3°F11.3°C 84% 2.0 mph W3.2 kmh W 2.9 mph4.7 kmh 30.19 in1022.4 mb 0.00 in0.0 mm 0.00 in/hr0.0 mm/hr 0.00 in0.0 mm
03:45 PM 57.0°F13.9°C 52.2°F11.2°C 84% 2.0 mph SW3.2 kmh SW 2.9 mph4.7 kmh 30.19 in1022.4 mb 0.00 in0.0 mm 0.00 in/hr0.0 mm/hr 0.00 in0.0 mm
03:35 PM 57.0°F13.9°C 52.2°F11.2°C 84% 2.9 mph SW4.7 kmh SW 3.4 mph5.5 kmh 30.19 in1022.4 mb 0.00 in0.0 mm 0.00 in/hr0.0 mm/hr 0.00 in0.0 mm
03:24 PM 57.2°F14.0°C 52.5°F11.4°C 84% 2.0 mph SW3.2 kmh SW 1.8 mph2.9 kmh 30.19 in1022.4 mb 0.00 in0.0 mm 0.00 in/hr0.0 mm/hr 0.00 in0.0 mm
03:14 PM 57.4°F14.1°C 52.9°F11.6°C 85% 2.0 mph WSW3.2 kmh WSW 1.1 mph1.8 kmh 30.19 in1022.4 mb 0.00 in0.0 mm 0.00 in/hr0.0 mm/hr 0.00 in0.0 mm
03:04 PM 57.4°F14.1°C 52.9°F11.6°C 85% 2.0 mph SSW3.2 kmh SSW 1.8 mph2.9 kmh 30.19 in1022.4 mb 0.00 in0.0 mm 0.00 in/hr0.0 mm/hr 0.00 in0.0 mm
02:53 PM 57.2°F14.0°C 52.7°F11.5°C 85% 2.0 mph SW3.2 kmh SW 1.1 mph1.8 kmh 30.19 in1022.4 mb 0.00 in0.0 mm 0.00 in/hr0.0 mm/hr 0.00 in0.0 mm
02:43 PM 57.4°F14.1°C 52.9°F11.6°C 85% 1.8 mph SSW2.9 kmh SSW 1.6 mph2.6 kmh 30.19 in1022.4 mb 0.00 in0.0 mm 0.00 in/hr0.0 mm/hr 0.00 in0.0 mm
02:33 PM 57.6°F14.2°C 52.7°F11.5°C 84% 2.0 mph WSW3.2 kmh WSW 3.1 mph5.0 kmh 30.19 in1022.4 mb 0.00 in0.0 mm 0.00 in/hr0.0 mm/hr 0.00 in0.0 mm
02:22 PM 57.4°F14.1°C 52.5°F11.4°C 84% 2.9 mph SW4.7 kmh SW 1.6 mph2.6 kmh 30.20 in1022.7 mb 0.00 in0.0 mm 0.00 in/hr0.0 mm/hr 0.00 in0.0 mm
02:12 PM 57.4°F14.1°C 52.5°F11.4°C 84% 2.9 mph SW4.7 kmh SW 2.9 mph4.7 kmh 30.20 in1022.7 mb 0.00 in0.0 mm 0.00 in/hr0.0 mm/hr 0.00 in0.0 mm
02:02 PM 57.0°F13.9°C 52.2°F11.2°C 84% 2.9 mph SW4.7 kmh SW 3.6 mph5.8 kmh 30.20 in1022.7 mb 0.00 in0.0 mm 0.00 in/hr0.0 mm/hr 0.00 in0.0 mm
01:51 PM 56.8°F13.8°C 52.3°F11.3°C 85% 2.9 mph WSW4.7 kmh WSW 2.2 mph3.5 kmh 30.20 in1022.7 mb 0.00 in0.0 mm 0.00 in/hr0.0 mm/hr 0.00 in0.0 mm
01:41 PM 56.7°F13.7°C 52.2°F11.2°C 85% 2.9 mph W4.7 kmh W 2.7 mph4.3 kmh 30.20 in1022.7 mb 0.00 in0.0 mm 0.00 in/hr0.0 mm/hr 0.00 in0.0 mm
01:30 PM 56.7°F13.7°C 51.8°F11.0°C 84% 3.1 mph SSW5.0 kmh SSW 4.0 mph6.4 kmh 30.21 in1023.0 mb 0.00 in0.0 mm 0.00 in/hr0.0 mm/hr 0.00 in0.0 mm
01:20 PM 57.0°F13.9°C 52.2°F11.2°C 84% 1.8 mph SW2.9 kmh SW 3.1 mph5.0 kmh 30.21 in1023.0 mb 0.00 in0.0 mm 0.00 in/hr0.0 mm/hr 0.00 in0.0 mm
01:10 PM 57.0°F13.9°C 52.0°F11.1°C 83% 2.9 mph SW4.7 kmh SW 2.5 mph4.0 kmh 30.21 in1023.0 mb 0.00 in0.0 mm 0.00 in/hr0.0 mm/hr 0.00 in0.0 mm
12:59 PM 57.2°F14.0°C 51.8°F11.0°C 82% 2.0 mph WSW3.2 kmh WSW 2.2 mph3.5 kmh 30.21 in1023.0 mb 0.00 in0.0 mm 0.00 in/hr0.0 mm/hr 0.00 in0.0 mm
12:49 PM 57.6°F14.2°C 52.3°F11.3°C 82% 2.0 mph SW3.2 kmh SW 0.9 mph1.4 kmh 30.21 in1023.0 mb 0.00 in0.0 mm 0.00 in/hr0.0 mm/hr 0.00 in0.0 mm
12:39 PM 57.6°F14.2°C 52.2°F11.2°C 82% 1.6 mph SW2.6 kmh SW 1.3 mph2.1 kmh 30.21 in1023.0 mb 0.00 in0.0 mm 0.00 in/hr0.0 mm/hr 0.00 in0.0 mm
12:29 PM 57.6°F14.2°C 52.2°F11.2°C 82% 2.0 mph SW3.2 kmh SW 1.8 mph2.9 kmh 30.21 in1023.0 mb 0.00 in0.0 mm 0.00 in/hr0.0 mm/hr 0.00 in0.0 mm
12:19 PM 57.7°F14.3°C 52.3°F11.3°C 82% 2.0 mph SSE3.2 kmh SSE 0.7 mph1.1 kmh 30.21 in1023.0 mb 0.00 in0.0 mm 0.00 in/hr0.0 mm/hr 0.00 in0.0 mm
12:09 PM 57.6°F14.2°C 52.2°F11.2°C 82% 0.9 mph SW1.4 kmh SW 1.1 mph1.8 kmh 30.21 in1023.0 mb 0.00 in0.0 mm 0.00 in/hr0.0 mm/hr 0.00 in0.0 mm
11:59 AM 57.4°F14.1°C 52.3°F11.3°C 83% 2.0 mph WSW3.2 kmh WSW 2.2 mph3.5 kmh 30.21 in1023.0 mb 0.00 in0.0 mm 0.00 in/hr0.0 mm/hr 0.00 in0.0 mm
11:48 AM 57.2°F14.0°C 51.8°F11.0°C 82% 2.9 mph WSW4.7 kmh WSW 2.0 mph3.2 kmh 30.22 in1023.4 mb 0.00 in0.0 mm 0.00 in/hr0.0 mm/hr 0.00 in0.0 mm
11:38 AM 57.2°F14.0°C 52.3°F11.3°C 84% 2.0 mph SW3.2 kmh SW 3.1 mph5.0 kmh 30.22 in1023.4 mb 0.00 in0.0 mm 0.00 in/hr0.0 mm/hr 0.00 in0.0 mm
11:28 AM 56.1°F13.4°C 52.3°F11.3°C 87% 2.0 mph SW3.2 kmh SW 2.5 mph4.0 kmh 30.22 in1023.4 mb 0.00 in0.0 mm 0.00 in/hr0.0 mm/hr 0.00 in0.0 mm
11:17 AM 54.9°F12.7°C 51.4°F10.8°C 88% 0.9 mph S1.4 kmh S 2.2 mph3.5 kmh 30.22 in1023.4 mb 0.00 in0.0 mm 0.00 in/hr0.0 mm/hr 0.00 in0.0 mm
11:07 AM 54.3°F12.4°C 51.1°F10.6°C 89% 0.9 mph WSW1.4 kmh WSW 1.6 mph2.6 kmh 30.22 in1023.4 mb 0.00 in0.0 mm 0.00 in/hr0.0 mm/hr 0.00 in0.0 mm
10:57 AM 54.0°F12.2°C 50.7°F10.4°C 89% 0.9 mph SW1.4 kmh SW 1.6 mph2.6 kmh 30.22 in1023.4 mb 0.00 in0.0 mm 0.00 in/hr0.0 mm/hr 0.00 in0.0 mm
10:46 AM 53.2°F11.8°C 50.0°F10.0°C 89% 2.9 mph SW4.7 kmh SW 3.6 mph5.8 kmh 30.22 in1023.4 mb 0.00 in0.0 mm 0.00 in/hr0.0 mm/hr 0.00 in0.0 mm
10:36 AM 53.1°F11.7°C 50.2°F10.1°C 90% 2.9 mph SW4.7 kmh SW 3.4 mph5.5 kmh 30.22 in1023.4 mb 0.00 in0.0 mm 0.00 in/hr0.0 mm/hr 0.00 in0.0 mm
10:26 AM 52.9°F11.6°C 50.0°F10.0°C 90% 2.9 mph SW4.7 kmh SW 2.9 mph4.7 kmh 30.22 in1023.4 mb 0.00 in0.0 mm 0.00 in/hr0.0 mm/hr 0.00 in0.0 mm
10:15 AM 52.5°F11.4°C 50.0°F10.0°C 91% 2.0 mph SW3.2 kmh SW 4.0 mph6.4 kmh 30.22 in1023.4 mb 0.00 in0.0 mm 0.00 in/hr0.0 mm/hr 0.00 in0.0 mm
10:05 AM 52.3°F11.3°C 49.8°F9.9°C 91% 2.0 mph SW3.2 kmh SW 2.9 mph4.7 kmh 30.22 in1023.4 mb 0.00 in0.0 mm 0.00 in/hr0.0 mm/hr 0.00 in0.0 mm
09:55 AM 51.8°F11.0°C 49.3°F9.6°C 91% 2.9 mph SW4.7 kmh SW 2.7 mph4.3 kmh 30.22 in1023.4 mb 0.00 in0.0 mm 0.00 in/hr0.0 mm/hr 0.00 in0.0 mm
09:45 AM 51.4°F10.8°C 49.3°F9.6°C 92% 2.9 mph SW4.7 kmh SW 2.7 mph4.3 kmh 30.22 in1023.4 mb 0.00 in0.0 mm 0.00 in/hr0.0 mm/hr 0.00 in0.0 mm
09:35 AM 50.7°F10.4°C 48.7°F9.3°C 93% 2.0 mph WSW3.2 kmh WSW 2.0 mph3.2 kmh 30.22 in1023.4 mb 0.00 in0.0 mm 0.00 in/hr0.0 mm/hr 0.00 in0.0 mm
09:25 AM 50.0°F10.0°C 48.0°F8.9°C 93% 2.0 mph SW3.2 kmh SW 2.0 mph3.2 kmh 30.22 in1023.4 mb 0.00 in0.0 mm 0.00 in/hr0.0 mm/hr 0.00 in0.0 mm
09:14 AM 49.1°F9.5°C 47.1°F8.4°C 93% 2.0 mph SSW3.2 kmh SSW 1.6 mph2.6 kmh 30.22 in1023.4 mb 0.00 in0.0 mm 0.00 in/hr0.0 mm/hr 0.00 in0.0 mm
09:04 AM 48.6°F9.2°C 46.6°F8.1°C 93% 2.0 mph WSW3.2 kmh WSW 2.0 mph3.2 kmh 30.22 in1023.4 mb 0.00 in0.0 mm 0.00 in/hr0.0 mm/hr 0.00 in0.0 mm
08:54 AM 48.4°F9.1°C 46.4°F8.0°C 93% 2.0 mph SSW3.2 kmh SSW 1.3 mph2.1 kmh 30.21 in1023.0 mb 0.00 in0.0 mm 0.00 in/hr0.0 mm/hr 0.00 in0.0 mm
08:44 AM 48.0°F8.9°C 46.0°F7.8°C 93% 0.9 mph SW1.4 kmh SW 2.2 mph3.5 kmh 30.21 in1023.0 mb 0.00 in0.0 mm 0.00 in/hr0.0 mm/hr 0.00 in0.0 mm
08:33 AM 48.0°F8.9°C 46.0°F7.8°C 93% 2.0 mph SW3.2 kmh SW 1.6 mph2.6 kmh 30.21 in1023.0 mb 0.00 in0.0 mm 0.00 in/hr0.0 mm/hr 0.00 in0.0 mm
08:23 AM 47.8°F8.8°C 45.9°F7.7°C 93% 2.0 mph SW3.2 kmh SW 2.0 mph3.2 kmh 30.21 in1023.0 mb 0.00 in0.0 mm 0.00 in/hr0.0 mm/hr 0.00 in0.0 mm
08:13 AM 47.8°F8.8°C 45.9°F7.7°C 93% 0.9 mph SW1.4 kmh SW 2.7 mph4.3 kmh 30.21 in1023.0 mb 0.00 in0.0 mm 0.00 in/hr0.0 mm/hr 0.00 in0.0 mm
08:02 AM 47.7°F8.7°C 45.7°F7.6°C 93% 0.9 mph WSW1.4 kmh WSW 1.3 mph2.1 kmh 30.21 in1023.0 mb 0.00 in0.0 mm 0.00 in/hr0.0 mm/hr 0.00 in0.0 mm
07:52 AM 47.7°F8.7°C 45.7°F7.6°C 93% 0.9 mph SW1.4 kmh SW 1.3 mph2.1 kmh 30.21 in1023.0 mb 0.00 in0.0 mm 0.00 in/hr0.0 mm/hr 0.00 in0.0 mm
07:42 AM 47.5°F8.6°C 45.5°F7.5°C 93% 0.9 mph SSW1.4 kmh SSW 1.3 mph2.1 kmh 30.21 in1023.0 mb 0.00 in0.0 mm 0.00 in/hr0.0 mm/hr 0.00 in0.0 mm
07:31 AM 47.5°F8.6°C 45.5°F7.5°C 93% 1.1 mph WSW1.8 kmh WSW 2.2 mph3.5 kmh 30.20 in1022.7 mb 0.00 in0.0 mm 0.00 in/hr0.0 mm/hr 0.00 in0.0 mm
07:20 AM 47.5°F8.6°C 45.5°F7.5°C 93% 2.0 mph SW3.2 kmh SW 2.9 mph4.7 kmh 30.20 in1022.7 mb 0.00 in0.0 mm 0.00 in/hr0.0 mm/hr 0.00 in0.0 mm
07:10 AM 47.1°F8.4°C 45.1°F7.3°C 93% 2.0 mph SW3.2 kmh SW 2.2 mph3.5 kmh 30.20 in1022.7 mb 0.00 in0.0 mm 0.00 in/hr0.0 mm/hr 0.00 in0.0 mm
07:00 AM 47.1°F8.4°C 45.0°F7.2°C 92% 2.0 mph WSW3.2 kmh WSW 2.0 mph3.2 kmh 30.20 in1022.7 mb 0.00 in0.0 mm 0.00 in/hr0.0 mm/hr 0.00 in0.0 mm
06:49 AM 46.9°F8.3°C 44.8°F7.1°C 92% 1.1 mph SSW1.8 kmh SSW 1.8 mph2.9 kmh 30.20 in1022.7 mb 0.00 in0.0 mm 0.00 in/hr0.0 mm/hr 0.00 in0.0 mm
06:39 AM 46.8°F8.2°C 44.6°F7.0°C 92% 0.9 mph SSW1.4 kmh SSW 0.7 mph1.1 kmh 30.20 in1022.7 mb 0.00 in0.0 mm 0.00 in/hr0.0 mm/hr 0.00 in0.0 mm
06:28 AM 46.8°F8.2°C 44.6°F7.0°C 92% Calm Calm 0.4 mph0.6 kmh 30.20 in1022.7 mb 0.00 in0.0 mm 0.00 in/hr0.0 mm/hr 0.00 in0.0 mm
06:18 AM 46.8°F8.2°C 44.6°F7.0°C 92% 0.7 mph SSW1.1 kmh SSW 1.1 mph1.8 kmh 30.19 in1022.4 mb 0.00 in0.0 mm 0.00 in/hr0.0 mm/hr 0.00 in0.0 mm
06:07 AM 46.9°F8.3°C 44.8°F7.1°C 92% Calm Calm 0.4 mph0.6 kmh 30.20 in1022.7 mb 0.00 in0.0 mm 0.00 in/hr0.0 mm/hr 0.00 in0.0 mm
05:57 AM 46.9°F8.3°C 44.8°F7.1°C 92% 0.9 mph SW1.4 kmh SW 0.7 mph1.1 kmh 30.20 in1022.7 mb 0.00 in0.0 mm 0.00 in/hr0.0 mm/hr 0.00 in0.0 mm
05:46 AM 46.9°F8.3°C 44.6°F7.0°C 91% 2.0 mph WSW3.2 kmh WSW 1.3 mph2.1 kmh 30.20 in1022.7 mb 0.00 in0.0 mm 0.00 in/hr0.0 mm/hr 0.00 in0.0 mm
05:36 AM 46.9°F8.3°C 44.4°F6.9°C 91% 2.0 mph SW3.2 kmh SW 3.1 mph5.0 kmh 30.20 in1022.7 mb 0.00 in0.0 mm 0.00 in/hr0.0 mm/hr 0.00 in0.0 mm
05:26 AM 47.1°F8.4°C 44.6°F7.0°C 91% 2.0 mph SW3.2 kmh SW 2.9 mph4.7 kmh 30.19 in1022.4 mb 0.00 in0.0 mm 0.00 in/hr0.0 mm/hr 0.00 in0.0 mm
05:16 AM 47.3°F8.5°C 44.8°F7.1°C 91% 2.2 mph WSW3.5 kmh WSW 1.3 mph2.1 kmh 30.20 in1022.7 mb 0.00 in0.0 mm 0.00 in/hr0.0 mm/hr 0.00 in0.0 mm
05:05 AM 47.7°F8.7°C 45.0°F7.2°C 90% 2.9 mph SW4.7 kmh SW 2.9 mph4.7 kmh 30.20 in1022.7 mb 0.00 in0.0 mm 0.00 in/hr0.0 mm/hr 0.00 in0.0 mm
04:55 AM 47.8°F8.8°C 45.0°F7.2°C 90% 2.9 mph SW4.7 kmh SW 2.7 mph4.3 kmh 30.20 in1022.7 mb 0.00 in0.0 mm 0.00 in/hr0.0 mm/hr 0.00 in0.0 mm
04:44 AM 47.8°F8.8°C 45.0°F7.2°C 90% 2.7 mph SW4.3 kmh SW 3.1 mph5.0 kmh 30.20 in1022.7 mb 0.00 in0.0 mm 0.00 in/hr0.0 mm/hr 0.00 in0.0 mm
04:34 AM 48.0°F8.9°C 45.1°F7.3°C 90% 2.0 mph SW3.2 kmh SW 3.1 mph5.0 kmh 30.20 in1022.7 mb 0.00 in0.0 mm 0.00 in/hr0.0 mm/hr 0.00 in0.0 mm
04:24 AM 48.0°F8.9°C 45.3°F7.4°C 90% 2.9 mph SSW4.7 kmh SSW 2.5 mph4.0 kmh 30.20 in1022.7 mb 0.00 in0.0 mm 0.00 in/hr0.0 mm/hr 0.00 in0.0 mm
04:13 AM 47.8°F8.8°C 45.3°F7.4°C 91% 2.0 mph SSW3.2 kmh SSW 2.5 mph4.0 kmh 30.20 in1022.7 mb 0.00 in0.0 mm 0.00 in/hr0.0 mm/hr 0.00 in0.0 mm
04:02 AM 47.8°F8.8°C 45.3°F7.4°C 91% 2.0 mph SW3.2 kmh SW 2.9 mph4.7 kmh 30.20 in1022.7 mb 0.00 in0.0 mm 0.00 in/hr0.0 mm/hr 0.00 in0.0 mm
03:52 AM 47.8°F8.8°C 45.0°F7.2°C 90% 0.9 mph SSW1.4 kmh SSW 1.3 mph2.1 kmh 30.21 in1023.0 mb 0.00 in0.0 mm 0.00 in/hr0.0 mm/hr 0.00 in0.0 mm
03:42 AM 48.0°F8.9°C 45.1°F7.3°C 90% 0.9 mph WSW1.4 kmh WSW 0.9 mph1.4 kmh 30.21 in1023.0 mb 0.00 in0.0 mm 0.00 in/hr0.0 mm/hr 0.00 in0.0 mm
03:32 AM 48.2°F9.0°C 45.3°F7.4°C 90% 0.9 mph SSW1.4 kmh SSW 1.6 mph2.6 kmh 30.21 in1023.0 mb 0.00 in0.0 mm 0.00 in/hr0.0 mm/hr 0.00 in0.0 mm
03:21 AM 48.6°F9.2°C 45.5°F7.5°C 89% 2.0 mph WSW3.2 kmh WSW 1.3 mph2.1 kmh 30.21 in1023.0 mb 0.00 in0.0 mm 0.00 in/hr0.0 mm/hr 0.00 in0.0 mm
03:11 AM 48.6°F9.2°C 45.5°F7.5°C 89% 2.0 mph SW3.2 kmh SW 1.8 mph2.9 kmh 30.21 in1023.0 mb 0.00 in0.0 mm 0.00 in/hr0.0 mm/hr 0.00 in0.0 mm
03:00 AM 48.7°F9.3°C 45.7°F7.6°C 89% 2.0 mph SW3.2 kmh SW 2.2 mph3.5 kmh 30.21 in1023.0 mb 0.00 in0.0 mm 0.00 in/hr0.0 mm/hr 0.00 in0.0 mm
02:50 AM 48.7°F9.3°C 45.7°F7.6°C 89% 2.0 mph SW3.2 kmh SW 1.8 mph2.9 kmh 30.21 in1023.0 mb 0.00 in0.0 mm 0.00 in/hr0.0 mm/hr 0.00 in0.0 mm
02:39 AM 48.7°F9.3°C 45.7°F7.6°C 89% 0.9 mph SW1.4 kmh SW 1.3 mph2.1 kmh 30.21 in1023.0 mb 0.00 in0.0 mm 0.00 in/hr0.0 mm/hr 0.00 in0.0 mm
02:29 AM 48.9°F9.4°C 45.5°F7.5°C 88% 0.9 mph SW1.4 kmh SW 0.7 mph1.1 kmh 30.22 in1023.4 mb 0.00 in0.0 mm 0.00 in/hr0.0 mm/hr 0.00 in0.0 mm
02:19 AM 49.1°F9.5°C 45.7°F7.6°C 88% 0.9 mph SW1.4 kmh SW 0.9 mph1.4 kmh 30.22 in1023.4 mb 0.00 in0.0 mm 0.00 in/hr0.0 mm/hr 0.00 in0.0 mm
02:08 AM 49.3°F9.6°C 45.9°F7.7°C 88% 0.9 mph SW1.4 kmh SW 1.6 mph2.6 kmh 30.22 in1023.4 mb 0.00 in0.0 mm 0.00 in/hr0.0 mm/hr 0.00 in0.0 mm
01:58 AM 49.5°F9.7°C 46.0°F7.8°C 88% 0.9 mph SW1.4 kmh SW 2.0 mph3.2 kmh 30.22 in1023.4 mb 0.00 in0.0 mm 0.00 in/hr0.0 mm/hr 0.00 in0.0 mm
01:47 AM 49.5°F9.7°C 46.0°F7.8°C 88% 0.9 mph SW1.4 kmh SW 1.6 mph2.6 kmh 30.22 in1023.4 mb 0.00 in0.0 mm 0.00 in/hr0.0 mm/hr 0.00 in0.0 mm
01:37 AM 49.3°F9.6°C 45.9°F7.7°C 88% 0.9 mph SW1.4 kmh SW 1.8 mph2.9 kmh 30.22 in1023.4 mb 0.00 in0.0 mm 0.00 in/hr0.0 mm/hr 0.00 in0.0 mm
01:26 AM 49.5°F9.7°C 46.0°F7.8°C 88% 2.0 mph SW3.2 kmh SW 1.6 mph2.6 kmh 30.22 in1023.4 mb 0.00 in0.0 mm 0.00 in/hr0.0 mm/hr 0.00 in0.0 mm
01:16 AM 49.1°F9.5°C 46.0°F7.8°C 89% 0.9 mph SW1.4 kmh SW 1.3 mph2.1 kmh 30.22 in1023.4 mb 0.00 in0.0 mm 0.00 in/hr0.0 mm/hr 0.00 in0.0 mm
01:05 AM 48.9°F9.4°C 45.9°F7.7°C 89% Calm Calm 0.2 mph0.3 kmh 30.22 in1023.4 mb 0.00 in0.0 mm 0.00 in/hr0.0 mm/hr 0.00 in0.0 mm
12:55 AM 48.9°F9.4°C 45.9°F7.7°C 89% Calm Calm 0.7 mph1.1 kmh 30.22 in1023.4 mb 0.00 in0.0 mm 0.00 in/hr0.0 mm/hr 0.00 in0.0 mm
12:45 AM 48.9°F9.4°C 45.9°F7.7°C 89% Calm Calm 0.4 mph0.6 kmh 30.22 in1023.4 mb 0.00 in0.0 mm 0.00 in/hr0.0 mm/hr 0.00 in0.0 mm
12:34 AM 48.7°F9.3°C 45.7°F7.6°C 89% Calm Calm 0.9 mph1.4 kmh 30.22 in1023.4 mb 0.00 in0.0 mm 0.00 in/hr0.0 mm/hr 0.00 in0.0 mm
12:24 AM 48.9°F9.4°C 45.9°F7.7°C 89% Calm Calm 0.4 mph0.6 kmh 30.22 in1023.4 mb 0.00 in0.0 mm 0.00 in/hr0.0 mm/hr 0.00 in0.0 mm
12:13 AM 48.9°F9.4°C 45.9°F7.7°C 89% Calm Calm 0.9 mph1.4 kmh 30.22 in1023.4 mb 0.00 in0.0 mm 0.00 in/hr0.0 mm/hr 0.00 in0.0 mm
12:03 AM 48.9°F9.4°C 45.9°F7.7°C 89% Calm Calm 0.4 mph0.6 kmh 30.22 in1023.4 mb 0.00 in0.0 mm 0.00 in/hr0.0 mm/hr 0.00 in0.0 mm